createdAt,value
2018-12-02T00:00:56.674Z,172.5
2018-12-02T00:01:56.563Z,172.1
2018-12-02T00:02:56.609Z,171
2018-12-02T00:03:56.605Z,170.4
2018-12-02T00:04:56.651Z,170.2
2018-12-02T00:05:56.606Z,170.1
2018-12-02T00:06:56.533Z,170
2018-12-02T00:07:56.597Z,170
2018-12-02T00:08:56.621Z,170
2018-12-02T00:09:56.595Z,170
2018-12-02T00:10:56.590Z,170
2018-12-02T00:11:56.599Z,170
2018-12-02T00:12:56.589Z,170
2018-12-02T00:13:56.580Z,169.6
2018-12-02T00:14:56.543Z,169.8
2018-12-02T00:15:56.571Z,169.9
2018-12-02T00:16:56.614Z,170
2018-12-02T00:17:56.559Z,170
2018-12-02T00:18:56.505Z,170
2018-12-02T00:19:56.568Z,170
2018-12-02T00:20:56.605Z,170
2018-12-02T00:21:56.512Z,170
2018-12-02T00:22:56.605Z,170
2018-12-02T00:23:56.608Z,170
2018-12-02T00:24:56.584Z,170
2018-12-02T00:25:56.589Z,170
2018-12-02T00:26:56.571Z,170
2018-12-02T00:27:56.565Z,170
2018-12-02T00:28:56.632Z,170
2018-12-02T00:29:56.569Z,170
2018-12-02T00:30:56.662Z,170
2018-12-02T00:31:56.661Z,170
2018-12-02T00:32:56.567Z,170
2018-12-02T00:33:56.549Z,170
2018-12-02T00:34:56.545Z,170
2018-12-02T00:35:56.522Z,170
2018-12-02T00:36:56.589Z,170
2018-12-02T00:37:56.564Z,169.2
2018-12-02T00:38:56.639Z,169.6
2018-12-02T00:39:56.462Z,169.8
2018-12-02T00:40:56.536Z,169.9
2018-12-02T00:41:56.571Z,170
2018-12-02T00:42:56.578Z,170
2018-12-02T00:43:56.582Z,170
2018-12-02T00:44:56.554Z,170
2018-12-02T00:45:56.566Z,170
2018-12-02T00:46:56.630Z,170
2018-12-02T00:47:56.584Z,170
2018-12-02T00:48:56.619Z,170
2018-12-02T00:49:56.604Z,170
2018-12-02T00:50:56.482Z,170
2018-12-02T00:51:56.589Z,170
2018-12-02T00:52:56.554Z,170
2018-12-02T00:53:56.695Z,170
2018-12-02T00:54:56.510Z,170
2018-12-02T00:55:56.599Z,170
2018-12-02T00:56:56.538Z,170
2018-12-02T00:57:56.559Z,170
2018-12-02T00:58:56.565Z,170
2018-12-02T00:59:56.512Z,170
2018-12-02T01:00:56.609Z,170
2018-12-02T01:01:56.464Z,170
2018-12-02T01:02:56.524Z,170
2018-12-02T01:03:56.644Z,170
2018-12-02T01:04:56.501Z,170
2018-12-02T01:05:56.554Z,170
2018-12-02T01:06:57.142Z,170
2018-12-02T01:07:56.598Z,170
2018-12-02T01:08:56.542Z,170
2018-12-02T01:09:56.550Z,170
2018-12-02T01:10:56.614Z,170
2018-12-02T01:11:56.544Z,170
2018-12-02T01:12:56.471Z,170
2018-12-02T01:13:56.565Z,159.5
2018-12-02T01:14:56.530Z,152.1
2018-12-02T01:15:56.674Z,149.6
2018-12-02T01:16:56.508Z,148.5
2018-12-02T01:17:56.547Z,148
2018-12-02T01:18:56.586Z,147.7
2018-12-02T01:19:56.575Z,147.6
2018-12-02T01:20:56.599Z,147.5
2018-12-02T01:21:56.501Z,147.5
2018-12-02T01:22:56.562Z,147.5
2018-12-02T01:23:56.608Z,157.7
2018-12-02T01:24:56.515Z,164.3
2018-12-02T01:25:56.561Z,167.4
2018-12-02T01:26:56.871Z,168.8
2018-12-02T01:27:56.593Z,169.4
2018-12-02T01:28:59.290Z,169.7
2018-12-02T01:29:56.456Z,169.9
2018-12-02T01:30:56.762Z,165.9
2018-12-02T01:31:56.452Z,168.1
2018-12-02T01:32:58.288Z,169.1
2018-12-02T01:33:56.753Z,169.6
2018-12-02T01:34:56.734Z,169.8
2018-12-02T01:35:56.836Z,169.9
2018-12-02T01:36:56.702Z,170
2018-12-02T01:37:56.734Z,170
2018-12-02T01:38:56.869Z,170
2018-12-02T01:39:56.759Z,170
2018-12-02T01:40:56.753Z,170
2018-12-02T01:41:56.913Z,170
2018-12-02T01:42:56.752Z,170
2018-12-02T01:43:56.747Z,170
2018-12-02T01:45:00.331Z,170
2018-12-02T01:45:56.650Z,170
2018-12-02T01:46:56.671Z,170
2018-12-02T01:47:56.786Z,170
2018-12-02T01:48:56.429Z,170
2018-12-02T01:49:56.518Z,170
2018-12-02T01:50:57.668Z,170
2018-12-02T01:51:57.031Z,170
2018-12-02T01:52:56.929Z,170
2018-12-02T01:53:56.580Z,170
2018-12-02T01:54:56.576Z,170
2018-12-02T01:55:59.422Z,170
2018-12-02T01:56:56.645Z,175.2
2018-12-02T01:57:56.845Z,172.4
2018-12-02T01:59:00.829Z,184.3
2018-12-02T01:59:56.757Z,179.2
2018-12-02T02:00:56.668Z,174.2
2018-12-02T02:01:58.929Z,171.9
2018-12-02T02:02:56.750Z,183
2018-12-02T02:03:56.844Z,201
2018-12-02T02:04:56.654Z,214.4
2018-12-02T02:05:56.611Z,213.1
2018-12-02T02:06:56.637Z,201
2018-12-02T02:07:56.737Z,200.2
2018-12-02T02:08:56.810Z,193.2
2018-12-02T02:09:56.669Z,192.8
2018-12-02T02:10:56.612Z,197.4
2018-12-02T02:11:56.716Z,195.5
2018-12-02T02:12:56.758Z,189
2018-12-02T02:13:56.806Z,178.8
2018-12-02T02:14:56.728Z,178.8
2018-12-02T02:15:56.893Z,186.2
2018-12-02T02:16:57.064Z,189.6
2018-12-02T02:17:56.550Z,182.2
2018-12-02T02:18:56.626Z,175.6
2018-12-02T02:19:56.780Z,172.6
2018-12-02T02:20:56.811Z,171.2
2018-12-02T02:21:56.724Z,170.6
2018-12-02T02:22:56.739Z,170.3
2018-12-02T02:23:56.659Z,170.1
2018-12-02T02:24:56.707Z,170.1
2018-12-02T02:25:56.856Z,170
2018-12-02T02:26:56.791Z,170
2018-12-02T02:27:56.707Z,170
2018-12-02T02:28:56.615Z,170
2018-12-02T02:29:56.561Z,178.2
2018-12-02T02:30:56.490Z,180.5
2018-12-02T02:31:56.526Z,186.9
2018-12-02T02:32:56.584Z,189.9
2018-12-02T02:33:56.527Z,191.3
2018-12-02T02:34:56.458Z,191.9
2018-12-02T02:35:56.627Z,192.2
2018-12-02T02:36:56.522Z,192.4
2018-12-02T02:37:56.538Z,192.4
2018-12-02T02:38:56.494Z,192.5
2018-12-02T02:39:56.476Z,192.5
2018-12-02T02:40:56.532Z,192.5
2018-12-02T02:41:56.575Z,192.5
2018-12-02T02:42:56.499Z,192.5
2018-12-02T02:43:56.474Z,192.5
2018-12-02T02:44:56.486Z,192.5
2018-12-02T02:45:56.537Z,192.5
2018-12-02T02:46:56.559Z,192.5
2018-12-02T02:47:56.535Z,192.5
2018-12-02T02:48:56.488Z,192.5
2018-12-02T02:49:56.485Z,182.9
2018-12-02T02:50:56.526Z,176
2018-12-02T02:51:56.626Z,172.8
2018-12-02T02:52:56.500Z,171.3
2018-12-02T02:53:56.492Z,170.6
2018-12-02T02:54:56.469Z,170.3
2018-12-02T02:55:56.443Z,170.1
2018-12-02T02:56:56.610Z,170.1
2018-12-02T02:57:56.530Z,170
2018-12-02T02:58:56.492Z,170
2018-12-02T02:59:56.521Z,170
2018-12-02T03:00:56.496Z,170.6
2018-12-02T03:01:56.499Z,170.3
2018-12-02T03:02:56.547Z,170.4
2018-12-02T03:03:56.474Z,177.2
2018-12-02T03:04:56.494Z,173.4
2018-12-02T03:05:56.613Z,171.6
2018-12-02T03:06:56.539Z,170.7
2018-12-02T03:07:56.433Z,170.3
2018-12-02T03:08:56.522Z,170.2
2018-12-02T03:09:56.519Z,170.1
2018-12-02T03:10:56.635Z,170
2018-12-02T03:11:56.600Z,170
2018-12-02T03:12:56.448Z,170
2018-12-02T03:13:56.481Z,164.9
2018-12-02T03:14:56.560Z,167.7
2018-12-02T03:15:56.582Z,168.9
2018-12-02T03:16:56.487Z,169.5
2018-12-02T03:17:56.386Z,169.8
2018-12-02T03:18:56.446Z,169.9
2018-12-02T03:19:56.470Z,169.9
2018-12-02T03:20:56.584Z,170
2018-12-02T03:21:56.530Z,170
2018-12-02T03:22:56.468Z,170
2018-12-02T03:23:56.536Z,170
2018-12-02T03:24:56.518Z,170
2018-12-02T03:25:56.527Z,170
2018-12-02T03:26:56.581Z,170
2018-12-02T03:27:56.478Z,170
2018-12-02T03:28:56.429Z,170
2018-12-02T03:29:56.565Z,170
2018-12-02T03:30:56.487Z,170
2018-12-02T03:31:56.529Z,170
2018-12-02T03:32:56.559Z,170
2018-12-02T03:33:56.462Z,170
2018-12-02T03:34:56.449Z,170
2018-12-02T03:35:56.594Z,170
2018-12-02T03:36:56.488Z,170.5
2018-12-02T03:37:56.591Z,170.5
2018-12-02T03:38:56.466Z,170.2
2018-12-02T03:39:56.429Z,169.1
2018-12-02T03:40:56.516Z,170.2
2018-12-02T03:41:56.465Z,169.7
2018-12-02T03:42:56.538Z,170.2
2018-12-02T03:43:57.051Z,171.6
2018-12-02T03:44:56.434Z,171.6
2018-12-02T03:45:56.492Z,170.7
2018-12-02T03:46:56.490Z,170.3
2018-12-02T03:47:56.584Z,170.2
2018-12-02T03:48:56.474Z,170.1
2018-12-02T03:49:56.508Z,170
2018-12-02T03:50:56.446Z,170.4
2018-12-02T03:51:56.568Z,170.2
2018-12-02T03:52:56.520Z,170.1
2018-12-02T03:53:56.520Z,170
2018-12-02T03:54:56.551Z,170
2018-12-02T03:55:56.490Z,170
2018-12-02T03:56:56.424Z,170
2018-12-02T03:57:56.469Z,170
2018-12-02T03:58:56.493Z,170
2018-12-02T03:59:56.515Z,170
2018-12-02T04:00:56.565Z,170
2018-12-02T04:01:56.410Z,170
2018-12-02T04:02:56.453Z,170
2018-12-02T04:03:56.481Z,170
2018-12-02T04:04:56.509Z,170
2018-12-02T04:05:56.576Z,170
2018-12-02T04:06:56.377Z,170
2018-12-02T04:07:56.599Z,170
2018-12-02T04:08:56.464Z,170
2018-12-02T04:09:56.495Z,170
2018-12-02T04:10:56.545Z,170
2018-12-02T04:11:56.499Z,170
2018-12-02T04:12:56.451Z,170
2018-12-02T04:13:56.533Z,171.3
2018-12-02T04:14:56.454Z,170.9
2018-12-02T04:15:56.470Z,170.4
2018-12-02T04:16:56.471Z,170.2
2018-12-02T04:17:56.443Z,170.1
2018-12-02T04:18:56.587Z,170
2018-12-02T04:19:56.472Z,170
2018-12-02T04:20:56.473Z,171.4
2018-12-02T04:21:56.472Z,170.7
2018-12-02T04:22:56.460Z,171.7
2018-12-02T04:23:56.499Z,170.8
2018-12-02T04:24:56.481Z,170.4
2018-12-02T04:25:56.503Z,170.2
2018-12-02T04:26:56.450Z,170.1
2018-12-02T04:27:56.484Z,170
2018-12-02T04:28:56.408Z,170
2018-12-02T04:29:56.503Z,170
2018-12-02T04:30:56.466Z,170
2018-12-02T04:31:56.443Z,170
2018-12-02T04:32:56.557Z,170
2018-12-02T04:33:56.507Z,170
2018-12-02T04:34:56.437Z,170
2018-12-02T04:35:56.472Z,170
2018-12-02T04:36:56.548Z,170
2018-12-02T04:37:56.472Z,170
2018-12-02T04:38:56.508Z,170
2018-12-02T04:39:56.474Z,170
2018-12-02T04:40:56.448Z,170
2018-12-02T04:41:56.480Z,170
2018-12-02T04:42:56.506Z,170
2018-12-02T04:43:56.422Z,170
2018-12-02T04:44:56.513Z,171.6
2018-12-02T04:45:56.387Z,192.6
2018-12-02T04:46:56.486Z,204.7
2018-12-02T04:47:56.539Z,210.3
2018-12-02T04:48:56.467Z,212.8
2018-12-02T04:49:56.507Z,214
2018-12-02T04:50:56.381Z,214.5
2018-12-02T04:51:56.394Z,214.8
2018-12-02T04:52:56.427Z,214.9
2018-12-02T04:53:56.489Z,215
2018-12-02T04:54:56.441Z,215
2018-12-02T04:55:56.429Z,215
2018-12-02T04:56:56.390Z,215
2018-12-02T04:57:56.569Z,215
2018-12-02T04:58:56.401Z,215.4
2018-12-02T04:59:56.405Z,215.5
2018-12-02T05:00:56.465Z,238.7
2018-12-02T05:01:56.389Z,250.5
2018-12-02T05:02:56.548Z,255.7
2018-12-02T05:03:56.471Z,258
2018-12-02T05:04:56.467Z,259.1
2018-12-02T05:05:56.472Z,259.6
2018-12-02T05:06:56.399Z,259.8
2018-12-02T05:07:56.483Z,259.9
2018-12-02T05:08:56.416Z,260
2018-12-02T05:09:56.422Z,260
2018-12-02T05:10:56.391Z,260
2018-12-02T05:11:56.424Z,260
2018-12-02T05:12:56.495Z,260
2018-12-02T05:13:56.440Z,260
2018-12-02T05:14:56.475Z,260
2018-12-02T05:15:56.549Z,260
2018-12-02T05:16:56.529Z,260
2018-12-02T05:17:56.400Z,260
2018-12-02T05:18:56.420Z,260
2018-12-02T05:19:56.477Z,260
2018-12-02T05:20:56.474Z,260
2018-12-02T05:21:56.486Z,260
2018-12-02T05:22:56.662Z,260
2018-12-02T05:23:56.387Z,260
2018-12-02T05:24:56.491Z,260
2018-12-02T05:25:56.553Z,260
2018-12-02T05:26:56.441Z,260
2018-12-02T05:27:56.425Z,260
2018-12-02T05:28:56.432Z,260
2018-12-02T05:29:56.453Z,260
2018-12-02T05:30:56.444Z,260
2018-12-02T05:31:56.474Z,260
2018-12-02T05:32:56.486Z,260
2018-12-02T05:33:56.390Z,260
2018-12-02T05:34:56.327Z,260
2018-12-02T05:35:56.481Z,260
2018-12-02T05:36:56.434Z,260
2018-12-02T05:37:56.507Z,260
2018-12-02T05:38:56.427Z,260
2018-12-02T05:39:56.380Z,260
2018-12-02T05:40:56.380Z,260
2018-12-02T05:41:56.432Z,260
2018-12-02T05:42:56.551Z,260
2018-12-02T05:43:56.394Z,260
2018-12-02T05:44:56.371Z,260
2018-12-02T05:45:56.321Z,260
2018-12-02T05:46:56.530Z,260
2018-12-02T05:47:56.455Z,260
2018-12-02T05:48:56.435Z,260
2018-12-02T05:49:56.450Z,249.5
2018-12-02T05:50:56.481Z,241.7
2018-12-02T05:51:56.460Z,221.8
2018-12-02T05:52:56.460Z,243.3
2018-12-02T05:53:56.393Z,252.6
2018-12-02T05:54:56.491Z,256.7
2018-12-02T05:55:56.479Z,258.5
2018-12-02T05:56:56.329Z,259.3
2018-12-02T05:57:56.434Z,259.7
2018-12-02T05:58:56.414Z,259.8
2018-12-02T05:59:56.499Z,259.9
2018-12-02T06:00:56.468Z,254.6
2018-12-02T06:01:56.369Z,218.3
2018-12-02T06:02:56.516Z,193.2
2018-12-02T06:03:56.476Z,199.4
2018-12-02T06:04:56.421Z,199.8
2018-12-02T06:05:56.425Z,201
2018-12-02T06:06:56.376Z,203.8
2018-12-02T06:07:56.507Z,204.1
2018-12-02T06:08:56.367Z,197
2018-12-02T06:09:56.473Z,182.2
2018-12-02T06:10:56.448Z,181.7
2018-12-02T06:11:56.429Z,175.3
2018-12-02T06:12:56.452Z,172.5
2018-12-02T06:13:56.523Z,171.1
2018-12-02T06:14:56.450Z,176.8
2018-12-02T06:15:56.486Z,197.4
2018-12-02T06:16:56.431Z,190.2
2018-12-02T06:17:56.372Z,180.1
2018-12-02T06:18:56.523Z,179.2
2018-12-02T06:19:56.425Z,174.2
2018-12-02T06:20:57.065Z,172.2
2018-12-02T06:21:56.403Z,171
2018-12-02T06:22:56.314Z,170.4
2018-12-02T06:23:56.406Z,169.5
2018-12-02T06:24:56.477Z,169.2
2018-12-02T06:25:56.500Z,169.6
2018-12-02T06:26:56.369Z,169.8
2018-12-02T06:27:56.402Z,172.6
2018-12-02T06:28:56.415Z,171.2
2018-12-02T06:29:56.408Z,170.5
2018-12-02T06:30:56.404Z,170.3
2018-12-02T06:32:11.178Z,152.1
2018-12-02T06:33:10.425Z,133.4
2018-12-02T06:34:10.278Z,129.6
2018-12-02T06:35:10.356Z,139.7
2018-12-02T06:36:10.351Z,147.2
2018-12-02T06:37:10.382Z,159.3
2018-12-02T06:38:10.387Z,165
2018-12-02T06:39:10.370Z,158.2
2018-12-02T06:40:10.234Z,152.9
2018-12-02T06:41:10.394Z,157.9
2018-12-02T06:42:10.328Z,152.4
2018-12-02T06:43:10.381Z,162.1
2018-12-02T06:44:10.354Z,148.3
2018-12-02T06:45:10.283Z,135.8
2018-12-02T06:46:10.413Z,129.8
2018-12-02T06:47:10.327Z,127.6
2018-12-02T06:48:10.377Z,126.2
2018-12-02T06:49:10.342Z,125.6
2018-12-02T06:50:10.471Z,125.3
2018-12-02T06:51:10.291Z,125.1
2018-12-02T06:52:10.496Z,125.1
2018-12-02T06:53:10.353Z,125
2018-12-02T06:54:10.232Z,125
2018-12-02T06:55:10.322Z,125
2018-12-02T06:56:10.299Z,125
2018-12-02T06:57:10.407Z,125
2018-12-02T06:58:10.323Z,125
2018-12-02T06:59:10.331Z,125
2018-12-02T07:00:10.295Z,125
2018-12-02T07:01:10.410Z,125
2018-12-02T07:02:10.334Z,125
2018-12-02T07:03:10.329Z,125
2018-12-02T07:04:10.326Z,125
2018-12-02T07:05:10.359Z,125
2018-12-02T07:06:10.413Z,125
2018-12-02T07:07:10.301Z,125
2018-12-02T07:08:10.366Z,125
2018-12-02T07:09:11.134Z,125
2018-12-02T07:10:10.334Z,125
2018-12-02T07:11:10.330Z,125
2018-12-02T07:12:10.357Z,125
2018-12-02T07:13:10.262Z,125
2018-12-02T07:14:10.381Z,125
2018-12-02T07:15:10.356Z,125
2018-12-02T07:16:10.311Z,125
2018-12-02T07:17:10.401Z,125
2018-12-02T07:18:10.298Z,125
2018-12-02T07:19:10.349Z,125
2018-12-02T07:20:10.380Z,125
2018-12-02T07:21:10.374Z,125
2018-12-02T07:22:10.338Z,125
2018-12-02T07:23:10.324Z,125
2018-12-02T07:24:10.292Z,125
2018-12-02T07:25:10.270Z,125
2018-12-02T07:26:10.318Z,125
2018-12-02T07:27:12.245Z,125
2018-12-02T07:28:10.289Z,125
2018-12-02T07:29:10.606Z,125
2018-12-02T07:30:11.055Z,125
2018-12-02T07:31:10.271Z,125
2018-12-02T07:32:10.289Z,125
2018-12-02T07:33:10.343Z,125
2018-12-02T07:34:10.339Z,125
2018-12-02T07:35:10.304Z,125
2018-12-02T07:36:10.286Z,125
2018-12-02T07:37:10.316Z,125
2018-12-02T07:38:10.390Z,125
2018-12-02T07:39:10.385Z,125
2018-12-02T07:40:10.303Z,125
2018-12-02T07:41:10.351Z,125
2018-12-02T07:42:10.318Z,125
2018-12-02T07:43:10.340Z,125
2018-12-02T07:44:10.376Z,125
2018-12-02T07:45:10.363Z,125
2018-12-02T07:46:10.345Z,125
2018-12-02T07:47:10.316Z,125
2018-12-02T07:48:10.409Z,125
2018-12-02T07:49:10.374Z,125
2018-12-02T07:50:10.291Z,125
2018-12-02T07:51:10.308Z,125
2018-12-02T07:52:10.289Z,125
2018-12-02T07:53:10.344Z,125
2018-12-02T07:54:10.421Z,125
2018-12-02T07:55:10.328Z,125
2018-12-02T07:56:10.232Z,125
2018-12-02T07:57:10.344Z,125
2018-12-02T07:58:10.359Z,125
2018-12-02T07:59:10.324Z,125
2018-12-02T08:00:10.389Z,125
2018-12-02T08:01:10.302Z,125
2018-12-02T08:02:10.294Z,125
2018-12-02T08:03:10.289Z,125
2018-12-02T08:04:11.327Z,125
2018-12-02T08:05:10.316Z,125
2018-12-02T08:06:10.306Z,125
2018-12-02T08:07:10.247Z,125
2018-12-02T08:08:10.332Z,125
2018-12-02T08:09:10.384Z,125
2018-12-02T08:10:10.276Z,125
2018-12-02T08:11:10.318Z,125
2018-12-02T08:12:10.329Z,125
2018-12-02T08:13:10.290Z,125
2018-12-02T08:14:10.277Z,125
2018-12-02T08:15:10.313Z,125
2018-12-02T08:16:10.318Z,125
2018-12-02T08:17:10.485Z,125
2018-12-02T08:18:12.294Z,125
2018-12-02T08:19:10.678Z,125
2018-12-02T08:20:11.032Z,125
2018-12-02T08:21:11.950Z,125
2018-12-02T08:22:12.358Z,125
2018-12-02T08:23:10.975Z,125
2018-12-02T08:24:12.415Z,125
2018-12-02T08:25:10.217Z,125
2018-12-02T08:26:15.354Z,125
2018-12-02T08:27:10.981Z,125
2018-12-02T08:28:22.517Z,125
2018-12-02T08:29:16.263Z,125
2018-12-02T08:30:13.862Z,125
2018-12-02T08:31:17.142Z,125
2018-12-02T08:32:11.954Z,125
2018-12-02T08:33:11.523Z,125
2018-12-02T08:34:11.996Z,125
2018-12-02T08:35:14.960Z,125
2018-12-02T08:36:12.045Z,125
2018-12-02T08:37:10.525Z,125
2018-12-02T08:38:10.359Z,125
2018-12-02T08:39:10.457Z,125
2018-12-02T08:40:10.342Z,125
2018-12-02T08:41:10.317Z,125
2018-12-02T08:42:10.306Z,125
2018-12-02T08:43:10.268Z,125
2018-12-02T08:44:10.339Z,125
2018-12-02T08:45:12.870Z,125
2018-12-02T08:46:10.294Z,125
2018-12-02T08:47:10.345Z,125
2018-12-02T08:48:10.346Z,125
2018-12-02T08:49:10.327Z,125
2018-12-02T08:50:10.262Z,125
2018-12-02T08:51:10.308Z,125
2018-12-02T08:52:10.292Z,125
2018-12-02T08:53:10.250Z,125
2018-12-02T08:54:10.380Z,125
2018-12-02T08:55:10.294Z,125
2018-12-02T08:56:10.255Z,125
2018-12-02T08:57:10.306Z,125
2018-12-02T08:58:10.262Z,125
2018-12-02T08:59:10.311Z,125
2018-12-02T09:00:10.271Z,125
2018-12-02T09:01:10.248Z,125
2018-12-02T09:02:10.324Z,125
2018-12-02T09:03:10.315Z,125
2018-12-02T09:04:10.277Z,125
2018-12-02T09:05:10.305Z,125
2018-12-02T09:06:10.356Z,125
2018-12-02T09:07:10.215Z,125
2018-12-02T09:08:10.283Z,125
2018-12-02T09:09:10.286Z,125
2018-12-02T09:10:10.214Z,125
2018-12-02T09:11:10.368Z,125
2018-12-02T09:12:10.230Z,125
2018-12-02T09:13:10.286Z,125
2018-12-02T09:14:10.305Z,125
2018-12-02T09:15:10.423Z,125
2018-12-02T09:16:10.286Z,125
2018-12-02T09:17:10.281Z,125
2018-12-02T09:18:10.586Z,125
2018-12-02T09:19:10.264Z,125
2018-12-02T09:20:10.268Z,125
2018-12-02T09:21:10.223Z,125
2018-12-02T09:22:13.503Z,125
2018-12-02T09:23:12.966Z,125
2018-12-02T09:24:12.290Z,125
2018-12-02T09:25:11.267Z,125
2018-12-02T09:26:10.827Z,125
2018-12-02T09:27:10.405Z,125
2018-12-02T09:28:10.343Z,125
2018-12-02T09:29:10.229Z,125
2018-12-02T09:30:10.335Z,125
2018-12-02T09:31:10.468Z,125
2018-12-02T09:32:10.380Z,125
2018-12-02T09:33:10.497Z,125
2018-12-02T09:34:10.379Z,125
2018-12-02T09:35:10.248Z,125
2018-12-02T09:36:10.299Z,125
2018-12-02T09:37:10.348Z,125
2018-12-02T09:38:10.387Z,125
2018-12-02T09:39:10.294Z,125
2018-12-02T09:40:11.001Z,125
2018-12-02T09:41:10.300Z,125
2018-12-02T09:42:10.273Z,125
2018-12-02T09:43:10.297Z,125
2018-12-02T09:44:10.303Z,125
2018-12-02T09:45:10.180Z,125
2018-12-02T09:46:14.374Z,125
2018-12-02T09:48:19.194Z,125
2018-12-02T09:49:14.200Z,125
2018-12-02T09:50:14.093Z,125
2018-12-02T09:51:15.036Z,125
2018-12-02T09:52:18.716Z,125
2018-12-02T09:53:14.016Z,125
2018-12-02T09:54:13.935Z,125
2018-12-02T09:55:13.941Z,125
2018-12-02T09:56:13.894Z,125
2018-12-02T09:57:13.937Z,125
2018-12-02T09:58:14.043Z,125
2018-12-02T09:59:13.889Z,125
2018-12-02T10:00:13.963Z,125
2018-12-02T10:01:15.338Z,125
2018-12-02T10:02:14.565Z,125
2018-12-02T10:03:13.996Z,125
2018-12-02T10:04:13.975Z,125
2018-12-02T10:05:14.035Z,125
2018-12-02T10:06:13.939Z,125
2018-12-02T10:07:13.873Z,125
2018-12-02T10:08:13.937Z,125
2018-12-02T10:09:13.995Z,125
2018-12-02T10:10:14.020Z,125
2018-12-02T10:11:13.942Z,125
2018-12-02T10:12:13.920Z,125
2018-12-02T10:13:13.923Z,125
2018-12-02T10:14:13.956Z,125
2018-12-02T10:15:13.995Z,125
2018-12-02T10:16:19.674Z,125
2018-12-02T10:17:13.941Z,125
2018-12-02T10:18:13.900Z,125
2018-12-02T10:19:14.021Z,131.7
2018-12-02T10:20:13.969Z,140
2018-12-02T10:21:13.925Z,144
2018-12-02T10:22:13.935Z,145.9
2018-12-02T10:23:13.935Z,146.8
2018-12-02T10:24:13.950Z,147.1
2018-12-02T10:25:13.939Z,147.3
2018-12-02T10:26:13.999Z,147.4
2018-12-02T10:27:13.932Z,147.5
2018-12-02T10:28:13.987Z,147.5
2018-12-02T10:29:13.871Z,153.3
2018-12-02T10:30:13.977Z,162.3
2018-12-02T10:31:13.972Z,166.3
2018-12-02T10:32:15.935Z,168.3
2018-12-02T10:33:13.941Z,169.2
2018-12-02T10:34:13.847Z,169.6
2018-12-02T10:35:13.948Z,169.8
2018-12-02T10:36:13.989Z,169.9
2018-12-02T10:37:13.964Z,170
2018-12-02T10:38:13.929Z,170
2018-12-02T10:39:13.982Z,170
2018-12-02T10:40:13.859Z,173.5
2018-12-02T10:41:13.935Z,187
2018-12-02T10:42:13.948Z,204.3
2018-12-02T10:43:13.914Z,203.9
2018-12-02T10:44:13.884Z,196.1
2018-12-02T10:45:14.576Z,187.9
2018-12-02T10:46:15.763Z,183.2
2018-12-02T10:47:14.031Z,198.9
2018-12-02T10:48:13.939Z,210.5
2018-12-02T10:49:13.880Z,221.9
2018-12-02T10:50:13.928Z,218.3
2018-12-02T10:51:14.024Z,241.2
2018-12-02T10:52:13.910Z,234.4
2018-12-02T10:53:14.007Z,209.3
2018-12-02T10:54:15.032Z,201.9
2018-12-02T10:55:13.938Z,191.2
2018-12-02T10:56:13.928Z,179.1
2018-12-02T10:57:13.890Z,174.2
2018-12-02T10:58:13.958Z,171.9
2018-12-02T10:59:13.866Z,170.9
2018-12-02T11:00:13.951Z,170.4
2018-12-02T11:01:13.876Z,170.2
2018-12-02T11:02:13.936Z,170.1
2018-12-02T11:03:13.980Z,170
2018-12-02T11:04:13.992Z,170
2018-12-02T11:05:13.927Z,170
2018-12-02T11:06:13.923Z,170
2018-12-02T11:07:13.859Z,180.9
2018-12-02T11:08:13.913Z,177.2
2018-12-02T11:09:13.986Z,173.2
2018-12-02T11:10:13.911Z,173.6
2018-12-02T11:11:13.914Z,172.6
2018-12-02T11:12:13.846Z,171.2
2018-12-02T11:13:13.981Z,170.6
2018-12-02T11:14:13.947Z,170.3
2018-12-02T11:15:13.934Z,170.1
2018-12-02T11:16:13.907Z,170.1
2018-12-02T11:17:13.909Z,170
2018-12-02T11:18:13.858Z,170
2018-12-02T11:19:14.004Z,170
2018-12-02T11:20:13.892Z,170
2018-12-02T11:21:13.979Z,170
2018-12-02T11:22:13.908Z,170
2018-12-02T11:23:13.847Z,170
2018-12-02T11:24:13.971Z,170
2018-12-02T11:25:13.898Z,170
2018-12-02T11:26:13.865Z,170
2018-12-02T11:27:13.949Z,182.6
2018-12-02T11:28:13.942Z,187.8
2018-12-02T11:29:13.891Z,190.3
2018-12-02T11:30:13.912Z,184.8
2018-12-02T11:31:13.909Z,176.7
2018-12-02T11:32:13.989Z,173.2
2018-12-02T11:33:13.953Z,171.5
2018-12-02T11:34:13.871Z,170.7
2018-12-02T11:35:13.910Z,175.3
2018-12-02T11:36:13.909Z,177.9
2018-12-02T11:37:13.902Z,183.9
2018-12-02T11:38:14.019Z,185.3
2018-12-02T11:39:13.925Z,177
2018-12-02T11:40:13.870Z,173.2
2018-12-02T11:41:13.854Z,171.5
2018-12-02T11:42:13.954Z,170.7
2018-12-02T11:43:13.949Z,170.3
2018-12-02T11:44:15.003Z,170.2
2018-12-02T11:45:13.803Z,170.1
2018-12-02T11:46:13.901Z,170
2018-12-02T11:47:13.891Z,170
2018-12-02T11:48:13.961Z,170
2018-12-02T11:49:13.849Z,170
2018-12-02T11:50:13.896Z,170
2018-12-02T11:51:13.857Z,170
2018-12-02T11:52:13.988Z,170
2018-12-02T11:53:13.883Z,170
2018-12-02T11:54:13.909Z,170
2018-12-02T11:55:13.896Z,170
2018-12-02T11:56:13.900Z,170
2018-12-02T11:57:14.194Z,170
2018-12-02T11:58:13.947Z,170
2018-12-02T11:59:13.910Z,172
2018-12-02T12:00:13.898Z,191.2
2018-12-02T12:01:13.873Z,205
2018-12-02T12:02:13.889Z,213.3
2018-12-02T12:03:13.896Z,225
2018-12-02T12:04:13.994Z,228.8
2018-12-02T12:05:13.874Z,225.7
2018-12-02T12:06:13.915Z,230.2
2018-12-02T12:07:13.916Z,225.1
2018-12-02T12:08:13.888Z,229.4
2018-12-02T12:09:14.000Z,232.4
2018-12-02T12:10:13.898Z,231.2
2018-12-02T12:11:13.900Z,227.5
2018-12-02T12:12:13.822Z,224.8
2018-12-02T12:13:13.927Z,224.5
2018-12-02T12:14:13.979Z,221.3
2018-12-02T12:15:13.895Z,222.8
2018-12-02T12:16:13.903Z,211.6
2018-12-02T12:17:13.907Z,205.7
2018-12-02T12:18:13.890Z,211.6
2018-12-02T12:19:13.904Z,214.8
2018-12-02T12:20:13.893Z,209.1
2018-12-02T12:21:13.958Z,219.7
2018-12-02T12:22:13.812Z,223.6
2018-12-02T12:23:13.819Z,225.8
2018-12-02T12:24:13.906Z,222.3
2018-12-02T12:25:13.889Z,229.5
2018-12-02T12:26:14.005Z,228.1
2018-12-02T12:27:13.890Z,230
2018-12-02T12:28:13.842Z,227.3
2018-12-02T12:29:13.796Z,213.4
2018-12-02T12:30:13.896Z,219.7
2018-12-02T12:31:13.937Z,222
2018-12-02T12:32:13.879Z,219.9
2018-12-02T12:33:13.956Z,220.2
2018-12-02T12:34:13.906Z,229.4
2018-12-02T12:35:13.885Z,226.6
2018-12-02T12:36:13.904Z,220.6
2018-12-02T12:37:13.896Z,208.7
2018-12-02T12:38:13.968Z,220.2
2018-12-02T12:39:13.873Z,221.1
2018-12-02T12:40:13.812Z,217
2018-12-02T12:41:13.958Z,211.9
2018-12-02T12:42:13.866Z,211.7
2018-12-02T12:43:13.873Z,218.1
2018-12-02T12:44:13.887Z,216.7
2018-12-02T12:45:13.811Z,220.4
2018-12-02T12:46:13.956Z,223.6
2018-12-02T12:47:13.906Z,223.8
2018-12-02T12:48:13.892Z,228
2018-12-02T12:49:13.912Z,228.8
2018-12-02T12:50:13.926Z,225.2
2018-12-02T12:51:17.402Z,224.6
2018-12-02T12:52:14.250Z,222.5
2018-12-02T12:53:17.520Z,217.9
2018-12-02T12:54:17.174Z,222.9
2018-12-02T12:55:15.037Z,225.8
2018-12-02T12:56:13.906Z,224.2
2018-12-02T12:57:13.929Z,226
2018-12-02T12:58:15.340Z,228.8
2018-12-02T12:59:13.892Z,231.2
2018-12-02T13:00:13.878Z,222
2018-12-02T13:01:13.798Z,229.1
2018-12-02T13:02:25.641Z,228.2
2018-12-02T13:03:13.933Z,223.7
2018-12-02T13:04:13.865Z,221.6
2018-12-02T13:05:14.889Z,226.6
2018-12-02T13:06:13.926Z,227.5
2018-12-02T13:07:14.394Z,229.7
2018-12-02T13:08:14.285Z,229.1
2018-12-02T13:09:13.812Z,233.3
2018-12-02T13:10:13.889Z,233.5
2018-12-02T13:11:13.810Z,232.8
2018-12-02T13:12:13.969Z,231.7
2018-12-02T13:13:13.922Z,230.1
2018-12-02T13:14:18.639Z,225.6
2018-12-02T13:15:13.840Z,227.9
2018-12-02T13:16:13.806Z,225
2018-12-02T13:17:13.962Z,219.5
2018-12-02T13:18:13.991Z,212.1
2018-12-02T13:19:13.947Z,218.2
2018-12-02T13:20:13.937Z,227
2018-12-02T13:21:14.026Z,228.4
2018-12-02T13:22:13.905Z,229.6
2018-12-02T13:23:13.891Z,232.7
2018-12-02T13:24:13.903Z,230.8